Aérodrome :
LOGIN :

S'inscrire | Disclaimer

   EN    FR    IT 

 










Légende :    VFR   VFR Marginal   IFR   IFR Intensif   IFR Très Intensif
Visi : 
Plafond : 
>= 8 km
>= 3000ft
5 à 8 km
1000 à 3000 ft
1500m à 5 km
500 à 1000 ft
800 à 1500m
200 à 500 ft
< 800m
< 200 ft
Symboles :   Orages  Brouillard  Fortes neiges  Fortes précipitations  Vent > 20 kt
SIGMETs :   Divers  Orages  Givrage  Turbulence  Onde Orograph.  Cendres Volcan.







- Altitude de l'aérodrome : 826 ft
- Code IATA : CWC


UKLN - Chernivtsi International

DERNIER METAR :
  • 241900Z 30002MPS 250V350 9999 SCT///CB 15/13 Q1010 R33/290260 NOSIG

METARs EXPIRÉS :
  • 241830Z 00000MPS 9999 SCT///CB 15/13 Q1009 R33/290260 NOSIG
  • 241800Z 02001MPS 9999 SCT///CB 15/13 Q1009 R33/290260 NOSIG
  • 241730Z VRB01MPS 9999 SCT///CB 14/12 Q1009 R33/290260 NOSIG
  • 241700Z 25002MPS 210V290 9999 -SHRA BKN013 BKN///CB 14/12 Q1009 R33/290260 TEMPO 33011G16MPS 1400 TSRAGR BKN005 BKN015CB
  • 241638Z VRB01MPS 9999 VCTS -SHRA BKN011 BKN030CB 16/12 Q1010 R33/290260 TEMPO 33011G16MPS 1400 TSRAGR BKN005 BKN015CB
  • 241630Z VRB01MPS 9999 VCTS -SHRA SCT///CB 16/12 Q1010 TEMPO 33011G16MPS 1400 TSRAGR BKN005 BKN015CB

TAF TAF UKLN
Valide du 24 à 18h jusqu'au 25 à 03h UTC


241708Z 2418/2503 25005MPS 9999 BKN020CB
TEMPO 2418/2421 VRB09G14MPS 1400 TSRAGR BKN005 BKN015CB
Pas de NOTAMs connus pour ce terrain.
1 SIGMET publié pour la FIR L'VIV (UKLV) :
 
Orages noyés dans la masse avec grêle
UKLV SIGMET 7 VALID 241900/242300 UKLW
UKLV LVIV FIR/UIR EMBD TSGR FCST ENTIRE FIR/UIR TOP FL390 STNR NC=



MET'MAP, la Météo Aéronautique d'un coup d'oeil ! - Copyright ORBIFLY Décembre 2007 - Disclaimer

ORBIFLY MET'MAP TEAM :

Programmation & Développement : Alexandra Zaïnal
Conception & Développement : Baudouin d'Aumeries
Co-Programmation & Développement : Marc-Olivier Méhu
Soutien technique & logistique : Manuel Goepfert

Contact : metmap@orbifly.com




SOURCES & CREDITS :

   NOAA